Time;durP1;ratioP1;P1;durP2;ratioP2;P2;SDS_P1;SDS_P2;PMS_P1;PMS_P2;Temp;Humidity;BMP_temperature;BMP_pressure;BME280_temperature;BME280_humidity;BME280_pressure;Samples;Min_cycle;Max_cycle;Signal;HPM_P1;HPM_P2
2023/02/09 00:01:12;;;;;;;25.07;13.97;;;-1.00;99.90;;;;;;5058952;28;20514;-67
2023/02/09 00:03:39;;;;;;;28.03;14.13;;;-0.90;99.90;;;;;;5058601;28;20680;-66
2023/02/09 00:06:08;;;;;;;22.87;14.40;;;-1.00;99.90;;;;;;5058176;28;20582;-67
2023/02/09 00:08:36;;;;;;;25.33;13.80;;;-1.00;99.90;;;;;;5057832;28;20499;-65
2023/02/09 00:11:06;;;;;;;28.13;14.93;;;-1.00;99.90;;;;;;5058598;28;20478;-67
2023/02/09 00:13:32;;;;;;;25.73;14.40;;;-1.10;99.90;;;;;;5061484;28;20473;-66
2023/02/09 00:16:01;;;;;;;22.77;12.80;;;-1.00;99.90;;;;;;5061929;28;20459;-65
2023/02/09 00:18:30;;;;;;;20.97;13.90;;;-1.10;99.90;;;;;;5062147;28;20462;-66
2023/02/09 00:20:57;;;;;;;23.37;12.87;;;-1.10;99.90;;;;;;5063608;28;20475;-65
2023/02/09 00:23:25;;;;;;;22.63;13.47;;;-1.00;99.90;;;;;;5064013;28;20550;-66
2023/02/09 00:25:52;;;;;;;22.83;12.70;;;-1.10;99.90;;;;;;5063807;28;20534;-66
2023/02/09 00:28:19;;;;;;;22.93;13.97;;;-1.10;99.90;;;;;;5063522;28;20543;-65
2023/02/09 00:30:46;;;;;;;22.53;13.50;;;-1.10;99.90;;;;;;5064280;28;20546;-65
2023/02/09 00:33:14;;;;;;;22.40;14.30;;;-1.10;99.90;;;;;;5063571;28;20495;-65
2023/02/09 00:35:42;;;;;;;22.10;14.10;;;-1.20;99.90;;;;;;5064044;28;20487;-66
2023/02/09 00:38:09;;;;;;;25.30;13.30;;;-1.20;99.90;;;;;;5062691;28;20923;-66
2023/02/09 00:40:37;;;;;;;22.77;13.63;;;-1.20;99.90;;;;;;5061877;28;20487;-66
2023/02/09 00:43:04;;;;;;;23.63;14.27;;;-1.20;99.90;;;;;;5060841;28;20465;-66
2023/02/09 00:45:31;;;;;;;26.00;14.40;;;-1.20;99.90;;;;;;5060979;28;20531;-67
2023/02/09 00:47:58;;;;;;;23.93;12.90;;;-1.20;99.90;;;;;;5058830;28;20855;-67
2023/02/09 00:50:27;;;;;;;21.87;14.03;;;-1.20;99.90;;;;;;5058953;28;20455;-67
2023/02/09 00:52:54;;;;;;;24.30;14.10;;;-1.20;99.90;;;;;;5057086;28;20455;-67
2023/02/09 00:55:21;;;;;;;22.40;13.60;;;-1.30;99.90;;;;;;5057861;28;20456;-67
2023/02/09 00:57:48;;;;;;;26.33;13.80;;;-1.30;99.90;;;;;;5058822;28;20459;-67
2023/02/09 01:00:16;;;;;;;20.33;13.20;;;-1.30;99.90;;;;;;5059175;28;20909;-67
2023/02/09 01:02:43;;;;;;;22.00;13.40;;;-1.30;99.90;;;;;;5059258;28;20541;-66
2023/02/09 01:05:10;;;;;;;20.00;13.43;;;-1.30;99.90;;;;;;5059393;28;20463;-66
2023/02/09 01:07:38;;;;;;;20.33;13.03;;;-1.30;99.90;;;;;;5059475;28;20550;-66
2023/02/09 01:10:06;;;;;;;29.20;15.50;;;-1.30;99.90;;;;;;5059327;28;20495;-66
2023/02/09 01:12:32;;;;;;;21.50;12.93;;;-1.40;99.90;;;;;;5058373;28;20455;-67
2023/02/09 01:15:00;;;;;;;20.93;13.50;;;-1.40;99.90;;;;;;5058302;28;20546;-67
2023/02/09 01:17:27;;;;;;;24.17;13.60;;;-1.40;99.90;;;;;;5057329;28;20459;-67
2023/02/09 01:19:55;;;;;;;24.30;13.60;;;-1.40;99.90;;;;;;5057831;28;20549;-67
2023/02/09 01:22:22;;;;;;;21.90;13.07;;;-1.40;99.90;;;;;;5058308;28;20455;-67
2023/02/09 01:24:51;;;;;;;19.83;13.27;;;-1.40;99.90;;;;;;5059177;28;20526;-67
2023/02/09 01:27:18;;;;;;;25.87;14.00;;;-1.40;99.90;;;;;;5059489;28;20469;-67
2023/02/09 01:29:46;;;;;;;22.97;13.13;;;-1.40;99.90;;;;;;5059789;28;20550;-66
2023/02/09 01:32:12;;;;;;;21.43;12.87;;;-1.40;99.90;;;;;;5060723;28;20486;-68
2023/02/09 01:34:39;;;;;;;27.83;13.23;;;-1.40;99.90;;;;;;5058004;28;20467;-67
2023/02/09 01:37:06;;;;;;;23.50;13.57;;;-1.50;99.90;;;;;;5057386;28;20495;-67
2023/02/09 01:39:33;;;;;;;20.90;13.40;;;-1.50;99.90;;;;;;5057957;28;20455;-66
2023/02/09 01:42:02;;;;;;;18.97;12.77;;;-1.50;99.90;;;;;;5058015;28;20483;-67
2023/02/09 01:45:11;;;;;;;23.40;13.77;;;-1.50;99.90;;;;;;5057464;28;20556;-67
2023/02/09 01:47:43;;;;;;;17.20;11.90;;;-1.50;99.90;;;;;;5042122;28;20562;-66
2023/02/09 01:50:11;;;;;;;21.47;11.87;;;-1.50;99.90;;;;;;5057408;28;20467;-67
2023/02/09 01:52:38;;;;;;;19.30;11.83;;;-1.60;99.90;;;;;;5057905;28;20451;-67
2023/02/09 01:55:10;;;;;;;21.23;13.67;;;-1.60;99.90;;;;;;5056744;28;20549;-67
2023/02/09 01:57:42;;;;;;;22.97;13.20;;;-1.60;99.90;;;;;;5058726;28;20777;-66
2023/02/09 02:00:13;;;;;;;25.53;13.77;;;-1.60;99.90;;;;;;5057103;28;20448;-67
2023/02/09 02:02:43;;;;;;;24.73;13.03;;;-1.60;99.90;;;;;;5056156;28;20526;-67
2023/02/09 02:05:11;;;;;;;23.67;13.77;;;-1.60;99.90;;;;;;5056456;28;20455;-67
2023/02/09 02:07:42;;;;;;;23.33;13.20;;;-1.60;99.90;;;;;;5056291;28;20934;-66
2023/02/09 02:10:10;;;;;;;22.47;12.13;;;-1.70;99.90;;;;;;5056457;28;20611;-66
2023/02/09 02:12:39;;;;;;;22.73;12.50;;;-1.80;99.90;;;;;;5056590;28;20455;-66
2023/02/09 02:15:07;;;;;;;18.57;11.80;;;-1.70;99.90;;;;;;5056975;28;20462;-67
2023/02/09 02:17:49;;;;;;;21.20;12.23;;;-1.70;99.90;;;;;;5056805;28;20466;-66
2023/02/09 02:20:48;;;;;;;20.43;12.57;;;-1.70;99.90;;;;;;5057020;28;20435;-67
2023/02/09 02:23:22;;;;;;;24.33;12.70;;;-1.80;99.90;;;;;;5056999;28;20435;-67
2023/02/09 02:26:27;;;;;;;20.50;12.00;;;-1.80;99.90;;;;;;5056437;28;20442;-67
2023/02/09 02:29:18;;;;;;;19.27;11.67;;;-1.80;99.90;;;;;;5023578;28;20783;-66
2023/02/09 02:32:12;;;;;;;19.00;10.60;;;-1.70;99.90;;;;;;5055782;28;20546;-68
2023/02/09 02:34:47;;;;;;;16.80;12.20;;;-1.80;99.90;;;;;;5056799;28;20543;-66
2023/02/09 02:37:21;;;;;;;16.90;11.73;;;-1.70;99.90;;;;;;5057633;28;20460;-66
2023/02/09 02:39:58;;;;;;;19.00;11.17;;;-1.80;99.90;;;;;;5056883;28;20806;-68
2023/02/09 02:42:48;;;;;;;20.63;13.30;;;-1.80;99.90;;;;;;5056720;28;20872;-67
2023/02/09 02:45:22;;;;;;;21.37;12.30;;;-1.70;99.90;;;;;;5056862;28;20489;-66
2023/02/09 02:47:58;;;;;;;18.23;11.77;;;-1.80;99.90;;;;;;5057046;28;20546;-66
2023/02/09 02:50:30;;;;;;;21.90;12.97;;;-1.80;99.90;;;;;;5056961;28;20884;-67
2023/02/09 02:52:59;;;;;;;20.40;11.83;;;-1.80;99.90;;;;;;5057058;28;20911;-67
2023/02/09 02:55:30;;;;;;;20.47;12.10;;;-1.80;99.90;;;;;;5057085;28;20542;-66
2023/02/09 02:58:01;;;;;;;19.20;11.50;;;-1.80;99.90;;;;;;5057928;28;20515;-66
2023/02/09 03:00:35;;;;;;;19.50;11.47;;;-1.80;99.90;;;;;;5056074;28;20439;-66
2023/02/09 03:03:08;;;;;;;16.97;10.87;;;-1.80;99.90;;;;;;5055646;28;20477;-66
2023/02/09 03:05:35;;;;;;;19.57;12.13;;;-1.90;99.90;;;;;;5056027;28;20530;-67
2023/02/09 03:08:02;;;;;;;18.37;11.83;;;-1.90;99.90;;;;;;5056225;28;20834;-66
2023/02/09 03:10:33;;;;;;;19.10;12.53;;;-1.90;99.90;;;;;;5055802;28;20461;-66
2023/02/09 03:13:14;;;;;;;19.50;11.57;;;-1.80;99.90;;;;;;5056382;28;20876;-66
2023/02/09 03:15:51;;;;;;;20.93;11.70;;;-1.80;99.90;;;;;;5055837;28;20467;-66
2023/02/09 03:18:30;;;;;;;17.03;10.37;;;-1.80;99.90;;;;;;5060217;28;20455;-67
2023/02/09 03:21:01;;;;;;;17.40;10.97;;;-1.80;99.90;;;;;;5059637;28;20561;-67
2023/02/09 03:23:33;;;;;;;19.10;12.27;;;-1.80;99.90;;;;;;5059379;28;20450;-68
2023/02/09 03:26:06;;;;;;;20.03;11.20;;;-1.80;99.90;;;;;;5059811;28;20462;-66
2023/02/09 03:28:35;;;;;;;18.27;11.30;;;-1.80;99.90;;;;;;5060400;28;20538;-67
2023/02/09 03:31:04;;;;;;;18.53;11.70;;;-1.90;99.90;;;;;;5060489;28;20455;-67
2023/02/09 03:33:36;;;;;;;17.63;11.33;;;-1.80;99.90;;;;;;5060853;28;20856;-67
2023/02/09 03:36:07;;;;;;;19.87;12.20;;;-1.80;99.90;;;;;;5061045;28;20787;-66
2023/02/09 03:38:34;;;;;;;20.90;12.13;;;-1.80;99.90;;;;;;5061116;28;20530;-66
2023/02/09 03:41:00;;;;;;;16.20;10.83;;;-1.80;99.90;;;;;;5060442;28;20479;-68
2023/02/09 03:46:08;;;;;;;20.20;11.97;;;-1.90;99.90;;;;;;5060675;28;20513;-66
2023/02/09 03:48:36;;;;;;;16.70;10.60;;;-1.90;99.90;;;;;;5061285;28;20495;-66
2023/02/09 03:51:05;;;;;;;17.63;11.73;;;-1.90;99.90;;;;;;5060818;28;20501;-66
2023/02/09 03:53:33;;;;;;;22.20;11.87;;;-1.90;99.90;;;;;;5060860;28;20846;-67
2023/02/09 03:56:00;;;;;;;19.93;12.70;;;-1.90;99.90;;;;;;5060812;28;20919;-67
2023/02/09 03:58:27;;;;;;;18.97;11.87;;;-1.90;99.90;;;;;;5060683;28;20455;-66
2023/02/09 04:00:54;;;;;;;19.20;11.77;;;-1.90;99.90;;;;;;5061318;28;20928;-67
2023/02/09 04:03:20;;;;;;;18.23;12.23;;;-1.90;99.90;;;;;;5060595;28;20545;-67
2023/02/09 04:05:48;;;;;;;16.80;10.80;;;-1.90;99.90;;;;;;5060929;28;20554;-67
2023/02/09 04:08:15;;;;;;;20.33;12.50;;;-1.90;99.90;;;;;;5061595;28;20741;-66
2023/02/09 04:10:42;;;;;;;20.20;12.73;;;-1.90;99.90;;;;;;5060782;28;20463;-67
2023/02/09 04:13:09;;;;;;;21.33;11.50;;;-1.90;99.90;;;;;;5059973;28;20581;-66
2023/02/09 04:15:38;;;;;;;18.43;11.30;;;-1.80;99.90;;;;;;5059492;28;20459;-66
2023/02/09 04:18:05;;;;;;;20.57;11.80;;;-1.90;99.90;;;;;;5058437;28;20792;-68
2023/02/09 04:20:32;;;;;;;20.23;10.77;;;-1.90;99.90;;;;;;5058712;28;20518;-66
2023/02/09 04:23:00;;;;;;;15.53;10.60;;;-1.90;99.90;;;;;;5059038;28;20483;-66
2023/02/09 04:25:27;;;;;;;18.67;11.57;;;-1.90;99.90;;;;;;5058750;28;20459;-67
2023/02/09 04:27:54;;;;;;;17.90;11.27;;;-1.90;99.90;;;;;;5057568;28;20459;-67
2023/02/09 04:30:20;;;;;;;19.30;12.77;;;-2.00;99.90;;;;;;5058822;28;20975;-66
2023/02/09 04:32:47;;;;;;;16.67;11.17;;;-2.00;99.90;;;;;;5058613;28;20483;-67
2023/02/09 04:35:14;;;;;;;19.20;11.80;;;-2.00;99.90;;;;;;5060262;28;20971;-68
2023/02/09 04:37:41;;;;;;;18.53;11.90;;;-2.00;99.90;;;;;;5063736;28;20519;-65
2023/02/09 04:40:10;;;;;;;19.83;11.37;;;-2.10;99.90;;;;;;5064284;28;20523;-67
2023/02/09 04:42:37;;;;;;;17.77;11.97;;;-2.10;99.90;;;;;;5061771;28;20479;-66
2023/02/09 04:45:05;;;;;;;22.23;11.50;;;-2.10;99.90;;;;;;5058359;28;20475;-68
2023/02/09 04:47:31;;;;;;;20.17;12.47;;;-2.20;99.90;;;;;;5058459;28;20780;-67
2023/02/09 04:49:58;;;;;;;21.20;12.37;;;-2.20;99.90;;;;;;5057761;28;20459;-67
2023/02/09 04:52:25;;;;;;;21.50;12.37;;;-2.20;99.90;;;;;;5057920;28;20535;-67
2023/02/09 04:54:52;;;;;;;21.00;12.13;;;-2.30;99.90;;;;;;5058292;28;20465;-66
2023/02/09 05:00:05;;;;;;;21.53;12.43;;;-2.40;99.90;;;;;;5057422;28;20431;-66
2023/02/09 05:02:32;;;;;;;19.67;11.73;;;-2.40;99.90;;;;;;5057326;28;20515;-67
2023/02/09 05:04:59;;;;;;;18.53;13.33;;;-2.40;99.90;;;;;;5057251;28;20538;-66
2023/02/09 05:07:26;;;;;;;18.93;12.33;;;-2.50;99.90;;;;;;5057647;28;20463;-67
2023/02/09 05:09:53;;;;;;;19.30;11.97;;;-2.50;99.90;;;;;;5057391;28;20458;-66
2023/02/09 05:12:21;;;;;;;21.40;11.47;;;-2.50;99.90;;;;;;5057779;28;20455;-66
2023/02/09 05:14:48;;;;;;;19.00;11.53;;;-2.50;99.90;;;;;;5057683;28;20469;-67
2023/02/09 05:17:19;;;;;;;19.40;12.63;;;-2.50;99.90;;;;;;5057422;28;20455;-67
2023/02/09 05:19:46;;;;;;;18.93;11.50;;;-2.60;99.90;;;;;;5057638;28;20752;-67
2023/02/09 05:22:13;;;;;;;20.60;12.00;;;-2.60;99.90;;;;;;5057300;28;20886;-66
2023/02/09 05:24:40;;;;;;;20.60;12.17;;;-2.60;99.90;;;;;;5057598;28;20936;-66
2023/02/09 05:27:07;;;;;;;24.93;12.50;;;-2.60;99.90;;;;;;5058087;28;20465;-66
2023/02/09 05:29:35;;;;;;;25.70;11.70;;;-2.60;99.90;;;;;;5057818;28;20510;-67
2023/02/09 05:32:02;;;;;;;21.20;12.13;;;-2.60;99.90;;;;;;5056647;28;20945;-67
2023/02/09 05:34:29;;;;;;;23.07;13.90;;;-2.70;99.90;;;;;;5057183;28;20946;-66
2023/02/09 05:36:55;;;;;;;20.83;11.50;;;-2.70;99.90;;;;;;5056999;28;20554;-67
2023/02/09 05:39:22;;;;;;;27.33;12.83;;;-2.70;99.90;;;;;;5056186;28;20497;-66
2023/02/09 05:44:35;;;;;;;24.13;14.30;;;-2.70;99.90;;;;;;5056873;28;20501;-66
2023/02/09 05:47:02;;;;;;;22.67;13.43;;;-2.70;99.90;;;;;;5056792;28;20466;-66
2023/02/09 05:49:28;;;;;;;23.73;12.80;;;-2.70;99.90;;;;;;5056602;28;20531;-67
2023/02/09 05:51:55;;;;;;;18.03;12.60;;;-2.70;99.90;;;;;;5056817;28;20461;-66
2023/02/09 05:54:22;;;;;;;21.03;12.53;;;-2.60;99.90;;;;;;5056192;28;20463;-67
2023/02/09 05:56:52;;;;;;;21.00;13.93;;;-2.70;99.90;;;;;;5056514;28;20759;-68
2023/02/09 05:59:19;;;;;;;20.87;12.33;;;-2.60;99.90;;;;;;5056620;28;20516;-67
2023/02/09 06:01:47;;;;;;;22.40;12.57;;;-2.60;99.90;;;;;;5057125;28;20578;-66
2023/02/09 06:04:14;;;;;;;19.20;12.93;;;-2.60;99.90;;;;;;5056398;28;20470;-68
2023/02/09 06:06:41;;;;;;;25.70;14.33;;;-2.50;99.90;;;;;;5056525;28;20554;-67
2023/02/09 06:09:08;;;;;;;21.60;13.37;;;-2.50;99.90;;;;;;5057145;28;20455;-67
2023/02/09 06:11:35;;;;;;;21.77;12.60;;;-2.50;99.90;;;;;;5057666;28;20467;-67
2023/02/09 06:14:02;;;;;;;17.63;11.60;;;-2.50;99.90;;;;;;5057437;28;20550;-66
2023/02/09 06:16:29;;;;;;;21.57;13.10;;;-2.50;99.90;;;;;;5057233;28;20550;-66
2023/02/09 06:18:57;;;;;;;21.10;14.47;;;-2.50;99.90;;;;;;5057322;28;20493;-66
2023/02/09 06:21:24;;;;;;;25.73;13.93;;;-2.50;99.90;;;;;;5056894;28;20455;-66
2023/02/09 06:23:51;;;;;;;17.80;12.53;;;-2.50;99.90;;;;;;5056525;28;20866;-67
2023/02/09 06:26:18;;;;;;;17.67;11.60;;;-2.50;99.90;;;;;;5056503;28;20542;-66
2023/02/09 06:28:46;;;;;;;21.83;12.97;;;-2.50;99.90;;;;;;5056714;28;20465;-66
2023/02/09 06:31:13;;;;;;;18.97;12.20;;;-2.50;99.90;;;;;;5056887;28;20939;-68
2023/02/09 06:33:41;;;;;;;20.93;12.30;;;-2.50;99.90;;;;;;5056487;28;20542;-66
2023/02/09 06:36:10;;;;;;;20.30;12.40;;;-2.50;99.90;;;;;;5056648;28;20459;-67
2023/02/09 06:38:38;;;;;;;22.30;12.20;;;-2.50;99.90;;;;;;5056006;28;20943;-67
2023/02/09 06:41:05;;;;;;;19.40;13.00;;;-2.50;99.90;;;;;;5055953;28;20518;-66
2023/02/09 06:43:32;;;;;;;20.93;13.47;;;-2.50;99.90;;;;;;5056357;28;20487;-67
2023/02/09 06:46:04;;;;;;;17.77;12.07;;;-2.50;99.90;;;;;;5056438;28;20509;-66
2023/02/09 06:48:31;;;;;;;23.27;14.20;;;-2.50;99.90;;;;;;5056511;28;20526;-65
2023/02/09 06:50:58;;;;;;;20.43;12.70;;;-2.50;99.90;;;;;;5056133;28;20868;-67
2023/02/09 06:53:26;;;;;;;19.90;11.70;;;-2.40;99.90;;;;;;5056490;28;20451;-66
2023/02/09 06:55:53;;;;;;;31.27;13.10;;;-2.40;99.90;;;;;;5056010;28;20544;-67
2023/02/09 06:58:19;;;;;;;23.40;12.50;;;-2.40;99.90;;;;;;5056188;28;20545;-66
2023/02/09 07:00:46;;;;;;;23.33;13.20;;;-2.30;99.90;;;;;;5056231;28;20542;-66
2023/02/09 07:03:13;;;;;;;22.70;12.77;;;-2.30;99.90;;;;;;5056004;28;20807;-67
2023/02/09 07:05:40;;;;;;;31.33;14.80;;;-2.30;99.90;;;;;;5055901;28;20451;-67
2023/02/09 07:08:07;;;;;;;18.43;12.93;;;-2.30;99.90;;;;;;5055155;28;20541;-67
2023/02/09 07:10:35;;;;;;;23.73;14.20;;;-2.30;99.90;;;;;;5056324;28;20473;-67
2023/02/09 07:13:02;;;;;;;23.60;12.33;;;-2.30;99.90;;;;;;5055780;28;20538;-67
2023/02/09 07:15:29;;;;;;;20.13;12.60;;;-2.30;99.90;;;;;;5055483;28;20451;-68
2023/02/09 07:17:55;;;;;;;21.47;11.60;;;-2.20;99.90;;;;;;5056021;28;20534;-67
2023/02/09 07:20:22;;;;;;;19.47;11.83;;;-2.20;99.90;;;;;;5055862;28;20487;-67
2023/02/09 07:22:49;;;;;;;20.37;13.03;;;-2.20;99.90;;;;;;5055944;28;20873;-68
2023/02/09 07:25:16;;;;;;;20.17;12.07;;;-2.20;99.90;;;;;;5055253;28;20842;-68
2023/02/09 07:27:45;;;;;;;24.07;12.57;;;-2.20;99.90;;;;;;5055434;28;20469;-67
2023/02/09 07:30:13;;;;;;;21.17;12.77;;;-2.20;99.90;;;;;;5055728;28;20479;-68
2023/02/09 07:32:41;;;;;;;22.93;12.67;;;-2.10;99.90;;;;;;5055652;28;20493;-66
2023/02/09 07:35:08;;;;;;;24.90;13.73;;;-2.10;99.90;;;;;;5055549;28;20469;-67
2023/02/09 07:37:35;;;;;;;21.50;12.23;;;-2.10;99.90;;;;;;5055260;28;20528;-67
2023/02/09 07:40:02;;;;;;;20.73;12.53;;;-2.10;99.90;;;;;;5055876;28;20469;-66
2023/02/09 07:42:29;;;;;;;21.60;11.90;;;-2.10;99.90;;;;;;5055382;28;20521;-67
2023/02/09 07:44:57;;;;;;;23.33;13.13;;;-2.00;99.90;;;;;;5055272;28;20548;-67
2023/02/09 07:47:24;;;;;;;26.13;13.70;;;-2.00;99.90;;;;;;5055044;28;20541;-67
2023/02/09 07:49:51;;;;;;;18.40;12.70;;;-2.00;99.90;;;;;;5055628;28;20549;-67
2023/02/09 07:52:18;;;;;;;18.80;12.60;;;-1.90;99.90;;;;;;5055811;28;20537;-66
2023/02/09 07:54:45;;;;;;;21.00;13.40;;;-1.80;99.90;;;;;;5055325;28;20451;-67
2023/02/09 07:57:13;;;;;;;21.80;12.43;;;-1.80;99.90;;;;;;5055328;28;20463;-66
2023/02/09 07:59:40;;;;;;;20.30;12.83;;;-1.80;99.90;;;;;;5055293;28;20927;-67
2023/02/09 08:02:18;;;;;;;18.40;11.90;;;-1.80;99.90;;;;;;5056052;28;20551;-66
2023/02/09 08:04:45;;;;;;;23.40;12.60;;;-1.80;99.90;;;;;;5058718;28;20445;-68
2023/02/09 08:07:12;;;;;;;24.47;12.07;;;-1.70;99.90;;;;;;5059406;28;20469;-67
2023/02/09 08:09:39;;;;;;;20.30;10.90;;;-1.70;99.90;;;;;;5059207;28;20546;-67
2023/02/09 08:12:07;;;;;;;18.63;11.53;;;-1.70;99.90;;;;;;5059141;28;20524;-67
2023/02/09 08:14:38;;;;;;;18.80;11.80;;;-1.60;99.90;;;;;;5062825;28;20478;-67
2023/02/09 08:17:20;;;;;;;18.60;12.30;;;-1.60;99.90;;;;;;5063843;28;20516;-67
2023/02/09 08:19:50;;;;;;;24.13;13.97;;;-1.60;99.90;;;;;;5061026;28;20522;-67
2023/02/09 08:22:17;;;;;;;19.93;11.57;;;-1.60;99.90;;;;;;5058999;28;20502;-69
2023/02/09 08:24:44;;;;;;;22.33;12.20;;;-1.50;99.90;;;;;;5058531;28;20455;-67
2023/02/09 08:27:11;;;;;;;19.00;13.17;;;-1.50;99.90;;;;;;5059327;28;20622;-66
2023/02/09 08:29:38;;;;;;;20.53;11.20;;;-1.40;99.90;;;;;;5058995;28;20555;-67
2023/02/09 08:32:05;;;;;;;21.80;12.33;;;-1.40;99.90;;;;;;5059508;28;20482;-67
2023/02/09 08:34:33;;;;;;;21.60;11.30;;;-1.40;99.90;;;;;;5058806;28;20488;-68
2023/02/09 08:37:00;;;;;;;22.70;11.03;;;-1.30;99.90;;;;;;5059320;28;20484;-69
2023/02/09 08:39:27;;;;;;;17.93;11.17;;;-1.30;99.90;;;;;;5059067;28;20487;-68
2023/02/09 08:41:54;;;;;;;16.87;11.27;;;-1.30;99.90;;;;;;5059064;28;20925;-66
2023/02/09 08:44:21;;;;;;;19.17;11.20;;;-1.20;99.90;;;;;;5058527;28;20518;-66
2023/02/09 08:46:47;;;;;;;19.07;10.93;;;-1.20;99.90;;;;;;5058076;28;20538;-68
2023/02/09 08:49:14;;;;;;;23.57;12.53;;;-1.10;99.90;;;;;;5058884;28;20465;-67
2023/02/09 08:51:42;;;;;;;17.27;11.13;;;-1.00;99.90;;;;;;5058745;28;20837;-67
2023/02/09 08:54:09;;;;;;;17.60;11.47;;;-1.00;99.90;;;;;;5057991;28;20561;-67
2023/02/09 08:56:36;;;;;;;24.07;12.50;;;-0.90;99.90;;;;;;5057979;28;20494;-68
2023/02/09 08:59:04;;;;;;;19.93;12.37;;;-0.90;99.90;;;;;;5058164;28;20550;-68
2023/02/09 09:01:31;;;;;;;20.93;13.27;;;-0.80;99.90;;;;;;5057406;28;20456;-67
2023/02/09 09:03:57;;;;;;;22.53;11.60;;;-0.70;99.90;;;;;;5057837;28;20511;-68
2023/02/09 09:06:25;;;;;;;16.43;11.00;;;-0.70;99.90;;;;;;5057955;28;20486;-67
2023/02/09 09:08:54;;;;;;;18.20;10.90;;;-0.70;99.90;;;;;;5058013;28;20490;-67
2023/02/09 09:11:20;;;;;;;17.47;12.00;;;-0.60;99.90;;;;;;5058862;28;20542;-66
2023/02/09 09:13:48;;;;;;;18.83;12.27;;;-0.60;99.90;;;;;;5058023;28;20457;-68
2023/02/09 09:16:16;;;;;;;21.97;11.50;;;-0.50;99.90;;;;;;5058439;28;20464;-67
2023/02/09 09:18:44;;;;;;;21.00;11.70;;;-0.50;99.90;;;;;;5059173;28;20621;-67
2023/02/09 09:21:11;;;;;;;20.97;12.37;;;-0.40;99.90;;;;;;5058916;28;20551;-67
2023/02/09 09:23:38;;;;;;;20.20;12.17;;;-0.40;99.90;;;;;;5058696;28;20833;-67
2023/02/09 09:26:06;;;;;;;20.73;13.30;;;-0.30;99.90;;;;;;5058554;28;20962;-67
2023/02/09 09:28:33;;;;;;;17.87;11.83;;;-0.20;99.90;;;;;;5059066;28;20545;-67
2023/02/09 09:31:04;;;;;;;25.33;12.20;;;-0.20;99.90;;;;;;5068134;28;20458;-67
2023/02/09 09:33:31;;;;;;;19.83;12.20;;;-0.20;99.90;;;;;;5068709;28;20478;-68
2023/02/09 09:35:59;;;;;;;18.73;12.60;;;-0.20;99.90;;;;;;5068986;28;20578;-68
2023/02/09 09:38:29;;;;;;;18.27;12.77;;;-0.10;99.90;;;;;;5069389;28;20463;-67
2023/02/09 09:40:56;;;;;;;25.70;11.50;;;-0.10;99.90;;;;;;5069875;28;20811;-67
2023/02/09 09:43:31;;;;;;;18.40;11.70;;;0.00;99.90;;;;;;5070218;28;20493;-66
2023/02/09 09:45:58;;;;;;;18.03;11.83;;;0.10;99.90;;;;;;5071239;28;20919;-66
2023/02/09 09:48:28;;;;;;;17.97;12.07;;;0.20;99.90;;;;;;5070969;28;20451;-67
2023/02/09 09:51:01;;;;;;;17.97;11.80;;;0.30;99.90;;;;;;5070481;28;20719;-67
2023/02/09 09:53:32;;;;;;;19.80;11.80;;;0.40;99.90;;;;;;5071175;28;20465;-67
2023/02/09 09:56:03;;;;;;;18.90;11.93;;;0.40;99.90;;;;;;5068973;28;20469;-69
2023/02/09 09:58:33;;;;;;;19.40;11.53;;;0.40;99.90;;;;;;5063478;28;20463;-69
2023/02/09 10:01:00;;;;;;;16.03;10.10;;;0.50;99.90;;;;;;5063262;28;20455;-70
2023/02/09 10:03:27;;;;;;;21.90;12.47;;;0.60;99.90;;;;;;5063098;28;20875;-69
2023/02/09 10:05:59;;;;;;;20.83;10.80;;;0.70;99.90;;;;;;5063687;28;20490;-69
2023/02/09 10:08:32;;;;;;;16.80;11.17;;;0.70;99.90;;;;;;5063265;28;20467;-68
2023/02/09 10:11:03;;;;;;;20.87;10.83;;;0.80;99.90;;;;;;5057626;28;20448;-68
2023/02/09 10:13:35;;;;;;;17.00;10.90;;;0.90;99.90;;;;;;5057750;28;20450;-68
2023/02/09 10:16:03;;;;;;;18.97;11.23;;;1.00;99.90;;;;;;5057339;28;20503;-66
2023/02/09 10:18:34;;;;;;;18.37;10.80;;;1.00;99.90;;;;;;5057352;28;20546;-67
2023/02/09 10:21:03;;;;;;;12.50;9.80;;;1.10;99.90;;;;;;5057681;28;20439;-67
2023/02/09 10:23:38;;;;;;;21.77;11.13;;;1.20;99.90;;;;;;5065642;28;20551;-68
2023/02/09 10:26:20;;;;;;;13.10;8.93;;;1.20;99.90;;;;;;5077223;28;20474;-68
2023/02/09 10:28:51;;;;;;;16.80;9.50;;;1.20;99.90;;;;;;5077591;28;20891;-67
2023/02/09 10:31:23;;;;;;;15.77;9.90;;;1.20;99.90;;;;;;5078277;28;20557;-67
2023/02/09 10:33:56;;;;;;;13.40;9.43;;;1.30;99.90;;;;;;5064882;28;20447;-66
2023/02/09 10:36:26;;;;;;;16.43;10.93;;;1.30;99.90;;;;;;5061644;28;20486;-66
2023/02/09 10:39:02;;;;;;;16.63;9.87;;;1.40;99.90;;;;;;5057842;28;20526;-67
2023/02/09 10:41:32;;;;;;;14.00;8.97;;;1.50;99.90;;;;;;5057486;28;20439;-67
2023/02/09 10:44:01;;;;;;;15.00;9.33;;;1.50;99.90;;;;;;5069484;28;20875;-66
2023/02/09 10:46:28;;;;;;;12.47;8.00;;;1.60;99.90;;;;;;5076200;28;20465;-65
2023/02/09 10:48:56;;;;;;;15.43;9.00;;;1.60;99.90;;;;;;5075865;28;20552;-67
2023/02/09 10:51:27;;;;;;;15.73;9.20;;;1.70;99.90;;;;;;5076195;28;20558;-68
2023/02/09 10:54:00;;;;;;;14.63;9.03;;;1.70;99.90;;;;;;5076182;28;20787;-67
2023/02/09 10:56:33;;;;;;;13.27;9.20;;;1.80;99.90;;;;;;5075991;28;20434;-67
2023/02/09 10:59:04;;;;;;;16.10;10.10;;;1.90;99.90;;;;;;5076342;28;20476;-68
2023/02/09 11:01:34;;;;;;;12.80;8.13;;;1.90;99.90;;;;;;5076727;28;20512;-68
2023/02/09 11:04:03;;;;;;;12.10;8.50;;;2.00;99.90;;;;;;5076213;28;20478;-67
2023/02/09 11:06:35;;;;;;;13.00;9.10;;;2.00;99.90;;;;;;5076297;28;20512;-67
2023/02/09 11:09:07;;;;;;;14.03;9.00;;;2.10;99.90;;;;;;5075448;28;20470;-67
2023/02/09 11:11:37;;;;;;;23.80;10.40;;;2.20;99.90;;;;;;5075665;28;20780;-67
2023/02/09 11:14:11;;;;;;;15.00;8.70;;;2.10;99.90;;;;;;5075516;28;20525;-68
2023/02/09 11:17:11;;;;;;;14.97;8.53;;;2.10;99.90;;;;;;5075084;28;20892;-68
2023/02/09 11:20:19;;;;;;;10.10;8.20;;;2.20;99.90;;;;;;5076847;28;20493;-68
2023/02/09 11:23:20;;;;;;;10.40;7.90;;;2.30;99.90;;;;;;5072810;28;20462;-68
2023/02/09 11:25:54;;;;;;;13.33;9.03;;;2.40;99.90;;;;;;5059472;28;20537;-69
2023/02/09 11:28:35;;;;;;;13.30;8.43;;;2.50;99.90;;;;;;5076130;28;20449;-67
2023/02/09 11:31:24;;;;;;;15.63;9.57;;;2.40;99.90;;;;;;5075064;28;20780;-68
2023/02/09 11:34:00;;;;;;;15.00;9.27;;;2.40;99.90;;;;;;5075321;28;20442;-68
2023/02/09 11:36:45;;;;;;;13.07;9.60;;;2.50;99.90;;;;;;5076304;28;20879;-67
2023/02/09 11:39:19;;;;;;;15.00;8.27;;;2.60;99.90;;;;;;5079778;28;20536;-68
2023/02/09 11:44:40;;;;;;;17.50;8.73;;;2.80;99.90;;;;;;5079321;28;20480;-67
2023/02/09 11:47:17;;;;;;;14.40;9.53;;;2.90;99.90;;;;;;5079245;28;20431;-72
2023/02/09 11:49:47;;;;;;;13.90;8.97;;;3.00;99.90;;;;;;5078452;28;20434;-72
2023/02/09 11:52:19;;;;;;;14.53;9.07;;;3.00;99.90;;;;;;5077919;28;20458;-70
2023/02/09 11:54:50;;;;;;;15.77;8.93;;;3.10;99.90;;;;;;5078695;28;20481;-71
2023/02/09 11:57:25;;;;;;;13.13;8.47;;;3.10;99.90;;;;;;5078351;28;20453;-71
2023/02/09 11:59:57;;;;;;;13.57;9.10;;;3.20;99.90;;;;;;5065778;28;20450;-70
2023/02/09 12:02:41;;;;;;;14.53;9.33;;;3.30;99.90;;;;;;5057805;28;20889;-73
2023/02/09 12:05:13;;;;;;;12.40;8.70;;;3.50;99.90;;;;;;5057699;28;21007;-70
2023/02/09 12:07:44;;;;;;;15.37;9.20;;;3.70;99.90;;;;;;5057906;28;20444;-70
2023/02/09 12:10:24;;;;;;;15.60;9.43;;;3.90;98.20;;;;;;5057248;28;20443;-71
2023/02/09 12:12:57;;;;;;;13.60;8.27;;;4.10;96.80;;;;;;5057546;28;20526;-72
2023/02/09 12:15:39;;;;;;;12.63;7.90;;;4.40;95.60;;;;;;5057642;28;20443;-71
2023/02/09 12:18:13;;;;;;;12.77;8.50;;;4.80;93.80;;;;;;5057761;28;20469;-73
2023/02/09 12:20:52;;;;;;;11.73;7.83;;;5.60;91.10;;;;;;5057657;28;20479;-71
2023/02/09 12:23:23;;;;;;;14.47;8.10;;;6.30;86.30;;;;;;5057115;28;20458;-70
2023/02/09 12:25:53;;;;;;;12.50;7.80;;;7.00;80.10;;;;;;5057325;28;20473;-72
2023/02/09 12:28:43;;;;;;;10.70;7.73;;;7.70;70.40;;;;;;5057244;28;20801;-72
2023/02/09 12:31:19;;;;;;;10.70;7.90;;;8.30;60.10;;;;;;5057051;28;20439;-71
2023/02/09 12:34:20;;;;;;;11.43;7.73;;;8.10;56.00;;;;;;5056947;28;20541;-73
2023/02/09 12:37:21;;;;;;;11.40;7.53;;;7.50;55.50;;;;;;5057170;28;20897;-72
2023/02/09 12:40:21;;;;;;;11.07;7.60;;;7.50;55.90;;;;;;5057030;28;20468;-73
2023/02/09 12:43:14;;;;;;;15.90;9.27;;;7.90;55.20;;;;;;5056792;28;20467;-71
2023/02/09 12:45:41;;;;;;;10.10;7.50;;;8.50;53.20;;;;;;5056645;28;20595;-70
2023/02/09 12:48:16;;;;;;;12.03;8.10;;;9.20;50.00;;;;;;5056281;28;20495;-72
2023/02/09 12:51:01;;;;;;;12.37;8.47;;;9.20;48.50;;;;;;5056187;28;20471;-69
2023/02/09 12:53:52;;;;;;;13.17;7.70;;;9.30;47.30;;;;;;5056560;28;20522;-71
2023/02/09 12:56:32;;;;;;;12.87;8.43;;;9.50;47.00;;;;;;5052994;28;20460;-70
2023/02/09 12:59:20;;;;;;;12.73;8.60;;;9.50;46.20;;;;;;5056712;28;20526;-70